Aurora, North Carolina
Current Conditions -  °F | °C
As of 5:54 AM on Sunday 21 Dec 2014 (Local Time) from KEWN Reporting Station
Few Clouds Few Clouds  
Wind Chill: 32°   Ceiling: Unl
Heat Index: 36°   Visibility: 9mi
Dew Point: 32°   Wind: 5mph
Humidity: 86%   Direction: 10°N
Pressure: 30.28"   Gusts: NA
Location:  35.31°N, 76.79°W
Report Text: KEWN 211054Z 01004KT 9SM FEW060 02/00 A3028 RMK AO2 SLP252 T00220000
Loading
Personal Weather Stations






























Interactive Weather Map New forecast layout! Learn more

10-Day Weather Forecast

Advertisements
Track Severe Weather on mobile